createdAt,value
2022-11-25T00:00:06.619Z,3.63
2022-11-25T00:00:38.062Z,2.97
2022-11-25T00:01:09.470Z,2.49
2022-11-25T00:01:40.997Z,2.72
2022-11-25T00:02:12.489Z,2.63
2022-11-25T00:02:44.112Z,2.78
2022-11-25T00:03:15.737Z,2.60
2022-11-25T00:03:47.170Z,2.52
2022-11-25T00:04:18.559Z,2.55
2022-11-25T00:04:49.999Z,2.33
2022-11-25T00:05:21.416Z,2.99
2022-11-25T00:05:52.810Z,2.92
2022-11-25T00:06:24.201Z,2.82
2022-11-25T00:06:55.591Z,2.68
2022-11-25T00:07:27.048Z,2.65
2022-11-25T00:07:58.438Z,2.30
2022-11-25T00:08:29.844Z,2.22
2022-11-25T00:09:01.241Z,2.58
2022-11-25T00:09:32.659Z,2.48
2022-11-25T00:10:04.167Z,2.53
2022-11-25T00:10:35.573Z,2.39
2022-11-25T00:11:06.981Z,2.59
2022-11-25T00:11:38.379Z,2.94
2022-11-25T00:12:09.762Z,2.37
2022-11-25T00:12:41.162Z,2.75
2022-11-25T00:13:12.552Z,2.57
2022-11-25T00:13:43.934Z,2.70
2022-11-25T00:14:15.340Z,2.60
2022-11-25T00:14:46.736Z,2.80
2022-11-25T00:15:18.218Z,2.34
2022-11-25T00:15:49.614Z,2.60
2022-11-25T00:16:21.088Z,2.31
2022-11-25T00:16:52.595Z,2.70
2022-11-25T00:17:23.992Z,2.23
2022-11-25T00:17:55.406Z,2.16
2022-11-25T00:18:26.799Z,2.78
2022-11-25T00:18:58.206Z,2.35
2022-11-25T00:19:29.595Z,2.85
2022-11-25T00:20:01.015Z,2.22
2022-11-25T00:20:32.513Z,2.04
2022-11-25T00:21:03.908Z,2.16
2022-11-25T00:21:35.299Z,2.66
2022-11-25T00:22:06.699Z,2.65
2022-11-25T00:22:38.090Z,2.56
2022-11-25T00:23:09.491Z,2.66
2022-11-25T00:23:40.881Z,2.37
2022-11-25T00:24:12.287Z,2.50
2022-11-25T00:24:43.688Z,2.76
2022-11-25T00:25:15.074Z,2.80
2022-11-25T00:25:46.546Z,3.00
2022-11-25T00:26:17.939Z,2.27
2022-11-25T00:26:49.338Z,2.17
2022-11-25T00:27:20.745Z,2.90
2022-11-25T00:27:52.160Z,2.11
2022-11-25T00:28:23.565Z,2.12
2022-11-25T00:28:54.957Z,2.78
2022-11-25T00:29:26.346Z,2.82
2022-11-25T00:29:57.760Z,2.38
2022-11-25T00:30:29.178Z,2.47
2022-11-25T00:31:00.614Z,2.44
2022-11-25T00:31:32.038Z,2.60
2022-11-25T00:32:03.520Z,2.10
2022-11-25T00:32:34.939Z,2.40
2022-11-25T00:33:06.355Z,2.63
2022-11-25T00:33:37.759Z,2.57
2022-11-25T00:34:09.155Z,2.17
2022-11-25T00:34:40.548Z,2.58
2022-11-25T00:35:12.002Z,2.37
2022-11-25T00:35:43.394Z,2.07
2022-11-25T00:36:14.879Z,1.95
2022-11-25T00:36:46.271Z,2.28
2022-11-25T00:37:17.667Z,2.04
2022-11-25T00:37:49.077Z,2.63
2022-11-25T00:38:20.478Z,2.60
2022-11-25T00:38:51.870Z,2.51
2022-11-25T00:39:23.502Z,2.00
2022-11-25T00:39:54.964Z,2.40
2022-11-25T00:40:26.355Z,1.94
2022-11-25T00:40:57.750Z,1.88
2022-11-25T00:41:29.238Z,2.01
2022-11-25T00:42:00.647Z,2.07
2022-11-25T00:42:32.031Z,2.21
2022-11-25T00:43:03.420Z,1.92
2022-11-25T00:43:34.803Z,2.39
2022-11-25T00:44:06.186Z,2.23
2022-11-25T00:44:38.738Z,3.03
2022-11-25T00:45:10.634Z,2.60
2022-11-25T00:45:42.089Z,2.01
2022-11-25T00:46:13.565Z,2.10
2022-11-25T00:46:45.034Z,2.31
2022-11-25T00:47:16.446Z,2.44
2022-11-25T00:47:47.862Z,2.49
2022-11-25T00:48:19.266Z,2.49
2022-11-25T00:48:50.659Z,2.53
2022-11-25T00:49:22.047Z,2.78
2022-11-25T00:49:53.471Z,2.08
2022-11-25T00:50:24.870Z,2.49
2022-11-25T00:50:56.254Z,2.57
2022-11-25T00:51:27.642Z,2.29
2022-11-25T00:51:59.093Z,2.53
2022-11-25T00:52:30.507Z,2.35
2022-11-25T00:53:01.902Z,2.52
2022-11-25T00:53:33.307Z,2.33
2022-11-25T00:54:04.709Z,2.41
2022-11-25T00:54:36.300Z,1.84
2022-11-25T00:55:07.835Z,2.05
2022-11-25T00:55:39.226Z,2.08
2022-11-25T00:56:10.619Z,2.68
2022-11-25T00:56:42.023Z,2.31
2022-11-25T00:57:13.465Z,2.33
2022-11-25T00:57:44.875Z,2.33
2022-11-25T00:58:16.266Z,2.38
2022-11-25T00:58:47.674Z,1.88
2022-11-25T00:59:19.073Z,2.08
2022-11-25T00:59:50.473Z,2.30
2022-11-25T01:00:21.890Z,2.17
2022-11-25T01:00:53.299Z,2.15
2022-11-25T01:01:24.905Z,2.19
2022-11-25T01:01:56.453Z,2.32
2022-11-25T01:02:28.068Z,2.48
2022-11-25T01:02:59.511Z,2.09
2022-11-25T01:03:30.923Z,2.16
2022-11-25T01:04:02.327Z,2.04
2022-11-25T01:04:34.088Z,1.99
2022-11-25T01:05:05.709Z,2.13
2022-11-25T01:05:37.107Z,2.09
2022-11-25T01:06:08.516Z,2.30
2022-11-25T01:06:39.913Z,2.12
2022-11-25T01:07:11.342Z,1.88
2022-11-25T01:07:42.902Z,1.92
2022-11-25T01:08:14.308Z,2.05
2022-11-25T01:08:45.723Z,2.14
2022-11-25T01:09:17.122Z,2.07
2022-11-25T01:09:48.528Z,2.22
2022-11-25T01:10:19.918Z,1.85
2022-11-25T01:10:51.306Z,2.58
2022-11-25T01:11:22.711Z,2.29
2022-11-25T01:11:54.128Z,1.80
2022-11-25T01:12:25.546Z,1.64
2022-11-25T01:12:57.192Z,1.95
2022-11-25T01:13:28.646Z,1.74
2022-11-25T01:14:01.685Z,2.03
2022-11-25T01:14:33.479Z,2.26
2022-11-25T01:15:05.064Z,2.14
2022-11-25T01:15:36.459Z,1.99
2022-11-25T01:16:07.870Z,2.22
2022-11-25T01:16:39.339Z,2.34
2022-11-25T01:17:10.762Z,2.13
2022-11-25T01:17:42.151Z,1.92
2022-11-25T01:18:13.598Z,1.85
2022-11-25T01:18:45.011Z,2.28
2022-11-25T01:19:16.398Z,1.93
2022-11-25T01:19:47.788Z,2.06
2022-11-25T01:20:19.176Z,2.05
2022-11-25T01:20:50.570Z,2.23
2022-11-25T01:21:21.971Z,2.24
2022-11-25T01:21:53.364Z,1.95
2022-11-25T01:22:24.785Z,1.73
2022-11-25T01:22:56.180Z,2.14
2022-11-25T01:23:27.670Z,2.17
2022-11-25T01:23:59.097Z,2.37
2022-11-25T01:24:30.499Z,1.87
2022-11-25T01:25:01.921Z,2.01
2022-11-25T01:25:33.311Z,1.68
2022-11-25T01:26:04.707Z,1.69
2022-11-25T01:26:36.104Z,1.78
2022-11-25T01:27:07.497Z,1.72
2022-11-25T01:27:38.888Z,1.84
2022-11-25T01:28:10.274Z,1.98
2022-11-25T01:28:41.721Z,1.82
2022-11-25T01:29:13.134Z,2.14
2022-11-25T01:29:44.591Z,1.97
2022-11-25T01:30:15.978Z,1.93
2022-11-25T01:30:47.411Z,1.88
2022-11-25T01:31:18.847Z,2.06
2022-11-25T01:31:50.298Z,1.78
2022-11-25T01:32:21.726Z,2.00
2022-11-25T01:32:53.121Z,1.72
2022-11-25T01:33:24.512Z,1.90
2022-11-25T01:33:55.989Z,1.88
2022-11-25T01:34:27.381Z,1.73
2022-11-25T01:34:58.774Z,1.88
2022-11-25T01:35:30.168Z,1.82
2022-11-25T01:36:01.554Z,2.13
2022-11-25T01:36:32.936Z,1.63
2022-11-25T01:37:04.325Z,1.91
2022-11-25T01:37:35.747Z,1.74
2022-11-25T01:38:07.154Z,1.78
2022-11-25T01:38:38.546Z,1.65
2022-11-25T01:39:10.031Z,1.68
2022-11-25T01:39:41.427Z,1.91
2022-11-25T01:40:12.823Z,1.96
2022-11-25T01:40:44.214Z,2.27
2022-11-25T01:41:15.600Z,1.81
2022-11-25T01:41:46.983Z,1.77
2022-11-25T01:42:18.435Z,1.76
2022-11-25T01:42:49.859Z,1.61
2022-11-25T01:43:21.252Z,1.71
2022-11-25T01:43:52.662Z,1.65
2022-11-25T01:44:24.102Z,1.83
2022-11-25T01:44:55.494Z,1.48
2022-11-25T01:45:28.810Z,1.75
2022-11-25T01:46:00.381Z,2.19
2022-11-25T01:46:31.816Z,1.92
2022-11-25T01:47:03.208Z,1.60
2022-11-25T01:47:34.594Z,1.89
2022-11-25T01:48:05.996Z,1.90
2022-11-25T01:48:37.399Z,2.31
2022-11-25T01:49:08.812Z,2.26
2022-11-25T01:49:40.320Z,1.95
2022-11-25T01:50:11.731Z,2.09
2022-11-25T01:50:43.126Z,1.95
2022-11-25T01:51:14.518Z,1.73
2022-11-25T01:51:45.907Z,1.78
2022-11-25T01:52:17.304Z,1.75
2022-11-25T01:52:48.697Z,1.95
2022-11-25T01:53:20.087Z,1.88
2022-11-25T01:53:51.477Z,1.83
2022-11-25T01:54:22.951Z,1.50
2022-11-25T01:54:54.353Z,1.71
2022-11-25T01:55:25.741Z,1.78
2022-11-25T01:55:57.136Z,1.87
2022-11-25T01:56:28.538Z,2.25
2022-11-25T01:56:59.931Z,1.78
2022-11-25T01:57:31.322Z,1.97
2022-11-25T01:58:02.750Z,1.86
2022-11-25T01:58:34.139Z,1.91
2022-11-25T01:59:05.538Z,1.76
2022-11-25T01:59:37.091Z,2.17
2022-11-25T02:00:08.484Z,1.73
2022-11-25T02:00:39.876Z,1.74
2022-11-25T02:01:11.308Z,1.62
2022-11-25T02:01:42.833Z,1.69
2022-11-25T02:02:14.368Z,1.72
2022-11-25T02:02:45.860Z,1.73
2022-11-25T02:03:17.355Z,1.64
2022-11-25T02:03:48.742Z,1.37
2022-11-25T02:04:20.131Z,1.50
2022-11-25T02:04:51.662Z,1.77
2022-11-25T02:05:23.052Z,1.64
2022-11-25T02:05:54.462Z,1.30
2022-11-25T02:06:25.875Z,1.66
2022-11-25T02:06:57.336Z,1.39
2022-11-25T02:07:28.754Z,1.62
2022-11-25T02:08:00.155Z,1.29
2022-11-25T02:08:31.555Z,1.33
2022-11-25T02:09:02.971Z,1.68
2022-11-25T02:09:34.364Z,1.75
2022-11-25T02:10:05.911Z,1.35
2022-11-25T02:10:37.324Z,2.41
2022-11-25T02:11:08.744Z,1.74
2022-11-25T02:11:40.154Z,1.64
2022-11-25T02:12:11.542Z,1.66
2022-11-25T02:12:42.962Z,1.64
2022-11-25T02:13:14.374Z,1.94
2022-11-25T02:13:45.763Z,1.56
2022-11-25T02:14:17.153Z,1.43
2022-11-25T02:14:48.544Z,1.47
2022-11-25T02:15:19.997Z,1.49
2022-11-25T02:15:51.400Z,1.56
2022-11-25T02:16:22.835Z,1.57
2022-11-25T02:16:54.301Z,1.78
2022-11-25T02:17:25.735Z,1.66
2022-11-25T02:17:57.131Z,1.58
2022-11-25T02:18:28.519Z,1.42
2022-11-25T02:18:59.986Z,1.53
2022-11-25T02:19:31.392Z,1.54
2022-11-25T02:20:02.777Z,1.62
2022-11-25T02:20:34.190Z,2.07
2022-11-25T02:21:05.583Z,1.70
2022-11-25T02:21:36.979Z,1.40
2022-11-25T02:22:08.370Z,1.57
2022-11-25T02:22:39.782Z,1.43
2022-11-25T02:23:11.171Z,1.89
2022-11-25T02:23:42.591Z,1.34
2022-11-25T02:24:13.977Z,1.80
2022-11-25T02:24:45.392Z,1.77
2022-11-25T02:25:16.887Z,2.01
2022-11-25T02:25:48.278Z,1.75
2022-11-25T02:26:19.689Z,1.56
2022-11-25T02:26:51.074Z,1.53
2022-11-25T02:27:22.467Z,1.57
2022-11-25T02:27:53.884Z,1.67
2022-11-25T02:28:25.289Z,1.74
2022-11-25T02:28:56.687Z,1.80
2022-11-25T02:29:28.069Z,1.37
2022-11-25T02:29:59.471Z,1.47
2022-11-25T02:30:30.924Z,1.26
2022-11-25T02:31:02.339Z,1.18
2022-11-25T02:31:33.753Z,1.08
2022-11-25T02:32:05.254Z,1.51
2022-11-25T02:32:36.767Z,1.45
2022-11-25T02:33:08.178Z,1.60
2022-11-25T02:33:39.572Z,1.65
2022-11-25T02:34:10.954Z,1.26
2022-11-25T02:34:42.355Z,1.15
2022-11-25T02:35:13.755Z,1.42
2022-11-25T02:35:45.212Z,1.68
2022-11-25T02:36:16.634Z,1.97
2022-11-25T02:36:48.048Z,1.35
2022-11-25T02:37:19.454Z,1.34
2022-11-25T02:37:50.861Z,1.31
2022-11-25T02:38:22.247Z,1.23
2022-11-25T02:38:53.645Z,1.22
2022-11-25T02:39:25.032Z,1.52
2022-11-25T02:39:56.423Z,1.44
2022-11-25T02:40:27.810Z,1.21
2022-11-25T02:40:59.267Z,1.66
2022-11-25T02:41:30.683Z,1.55
2022-11-25T02:42:02.072Z,1.57
2022-11-25T02:42:33.481Z,1.40
2022-11-25T02:43:04.871Z,1.16
2022-11-25T02:43:36.277Z,1.58
2022-11-25T02:44:07.830Z,1.52
2022-11-25T02:44:39.229Z,1.23
2022-11-25T02:45:10.634Z,1.50
2022-11-25T02:45:42.118Z,1.21
2022-11-25T02:46:18.845Z,1.28
2022-11-25T02:46:53.164Z,1.56
2022-11-25T02:47:24.551Z,1.81
2022-11-25T02:47:55.951Z,1.28
2022-11-25T02:48:52.912Z,1.23
2022-11-25T02:49:18.726Z,1.52
2022-11-25T02:49:50.116Z,1.22
2022-11-25T02:50:21.503Z,1.12
2022-11-25T02:50:53.079Z,1.51
2022-11-25T02:51:24.470Z,1.73
2022-11-25T02:51:55.952Z,1.36
2022-11-25T02:52:27.348Z,1.31
2022-11-25T02:52:58.749Z,1.43
2022-11-25T02:53:30.136Z,1.32
2022-11-25T02:54:01.548Z,1.01
2022-11-25T02:54:33.068Z,1.39
2022-11-25T02:55:04.499Z,1.38
2022-11-25T02:55:35.892Z,1.14
2022-11-25T02:56:07.366Z,1.31
2022-11-25T02:56:38.755Z,1.24
2022-11-25T02:57:10.145Z,1.22
2022-11-25T02:57:41.555Z,1.64
2022-11-25T02:58:12.940Z,1.29
2022-11-25T02:58:44.325Z,1.33
2022-11-25T02:59:15.722Z,1.60
2022-11-25T02:59:47.108Z,1.19
2022-11-25T03:00:18.518Z,1.40
2022-11-25T03:00:49.951Z,1.60
2022-11-25T03:01:21.610Z,1.20
2022-11-25T03:01:53.072Z,1.32
2022-11-25T03:02:24.523Z,1.14
2022-11-25T03:02:55.964Z,1.39
2022-11-25T03:03:27.385Z,1.24
2022-11-25T03:03:58.779Z,1.09
2022-11-25T03:04:30.196Z,1.18
2022-11-25T03:05:01.600Z,1.34
2022-11-25T03:05:33.001Z,1.08
2022-11-25T03:06:04.388Z,1.28
2022-11-25T03:06:35.883Z,1.40
2022-11-25T03:07:07.290Z,1.56
2022-11-25T03:07:38.785Z,1.38
2022-11-25T03:08:10.255Z,0.97
2022-11-25T03:08:41.666Z,1.30
2022-11-25T03:09:13.054Z,1.05
2022-11-25T03:09:44.442Z,1.04
2022-11-25T03:10:15.835Z,1.30
2022-11-25T03:10:47.222Z,1.45
2022-11-25T03:11:18.621Z,1.15
2022-11-25T03:11:50.148Z,1.54
2022-11-25T03:12:21.540Z,1.06
2022-11-25T03:12:52.950Z,1.00
2022-11-25T03:13:24.347Z,0.97
2022-11-25T03:13:55.736Z,0.74
2022-11-25T03:14:27.117Z,1.33
2022-11-25T03:14:58.498Z,1.38
2022-11-25T03:15:29.891Z,1.22
2022-11-25T03:16:01.364Z,1.23
2022-11-25T03:16:32.881Z,0.95
2022-11-25T03:17:04.346Z,1.23
2022-11-25T03:17:35.758Z,1.12
2022-11-25T03:18:07.141Z,1.11
2022-11-25T03:18:38.553Z,1.14
2022-11-25T03:19:09.942Z,0.89
2022-11-25T03:19:41.354Z,1.00
2022-11-25T03:20:12.740Z,1.43
2022-11-25T03:20:44.129Z,1.44
2022-11-25T03:21:15.519Z,1.21
2022-11-25T03:21:46.962Z,1.13
2022-11-25T03:22:18.465Z,1.06
2022-11-25T03:22:49.854Z,1.29
2022-11-25T03:23:21.267Z,1.30
2022-11-25T03:23:52.658Z,1.14
2022-11-25T03:24:24.047Z,1.03
2022-11-25T03:24:55.459Z,1.03
2022-11-25T03:25:26.847Z,1.15
2022-11-25T03:25:58.255Z,0.83
2022-11-25T03:26:29.661Z,0.82
2022-11-25T03:27:01.082Z,0.91
2022-11-25T03:27:32.541Z,1.24
2022-11-25T03:28:03.927Z,0.87
2022-11-25T03:28:35.338Z,1.01
2022-11-25T03:29:06.728Z,1.12
2022-11-25T03:29:38.119Z,1.37
2022-11-25T03:30:09.513Z,1.37
2022-11-25T03:30:40.900Z,0.95
2022-11-25T03:31:12.347Z,1.28
2022-11-25T03:31:43.883Z,1.32
2022-11-25T03:32:15.428Z,1.11
2022-11-25T03:32:46.853Z,1.21
2022-11-25T03:33:18.258Z,0.93
2022-11-25T03:33:49.650Z,1.00
2022-11-25T03:34:21.112Z,1.05
2022-11-25T03:34:52.521Z,1.08
2022-11-25T03:35:23.916Z,1.26
2022-11-25T03:35:55.313Z,1.02
2022-11-25T03:36:26.783Z,0.93
2022-11-25T03:36:58.248Z,1.05
2022-11-25T03:37:29.816Z,0.79
2022-11-25T03:38:01.209Z,1.40
2022-11-25T03:38:32.619Z,1.30
2022-11-25T03:39:04.008Z,1.07
2022-11-25T03:39:35.403Z,0.98
2022-11-25T03:40:06.822Z,1.09
2022-11-25T03:40:38.218Z,1.14
2022-11-25T03:41:09.626Z,1.15
2022-11-25T03:41:41.109Z,1.11
2022-11-25T03:42:12.496Z,1.12
2022-11-25T03:42:43.977Z,1.14
2022-11-25T03:43:15.361Z,1.37
2022-11-25T03:43:46.761Z,1.05
2022-11-25T03:44:18.158Z,1.04
2022-11-25T03:44:49.542Z,1.14
2022-11-25T03:45:20.934Z,1.03
2022-11-25T03:45:52.350Z,0.98
2022-11-25T03:46:23.948Z,1.15
2022-11-25T03:46:55.470Z,1.17
2022-11-25T03:47:26.862Z,1.23
2022-11-25T03:47:58.285Z,0.98
2022-11-25T03:48:29.695Z,1.06
2022-11-25T03:49:01.088Z,1.03
2022-11-25T03:49:32.476Z,1.20
2022-11-25T03:50:03.864Z,0.77
2022-11-25T03:50:35.250Z,1.02
2022-11-25T03:51:06.635Z,1.22
2022-11-25T03:51:38.025Z,0.79
2022-11-25T03:52:09.413Z,0.87
2022-11-25T03:52:40.802Z,1.00
2022-11-25T03:53:12.205Z,1.49
2022-11-25T03:53:43.611Z,1.06
2022-11-25T03:54:14.999Z,0.82
2022-11-25T03:54:46.392Z,0.83
2022-11-25T03:55:17.799Z,0.91
2022-11-25T03:55:49.186Z,0.94
2022-11-25T03:56:20.611Z,1.04
2022-11-25T03:56:52.013Z,1.06
2022-11-25T03:57:23.415Z,1.05
2022-11-25T03:57:54.807Z,0.90
2022-11-25T03:58:26.263Z,0.87
2022-11-25T03:58:57.663Z,1.01
2022-11-25T03:59:29.057Z,0.72
2022-11-25T04:00:00.457Z,0.98
2022-11-25T04:00:31.846Z,0.79
2022-11-25T04:01:03.255Z,0.96
2022-11-25T04:01:34.711Z,0.93
2022-11-25T04:02:06.208Z,0.91
2022-11-25T04:02:37.675Z,1.12
2022-11-25T04:03:09.095Z,0.94
2022-11-25T04:03:40.630Z,0.68
2022-11-25T04:04:12.020Z,0.96
2022-11-25T04:04:43.412Z,0.83
2022-11-25T04:05:14.824Z,0.92
2022-11-25T04:05:46.215Z,0.65
2022-11-25T04:06:17.609Z,0.75
2022-11-25T04:06:48.994Z,1.15
2022-11-25T04:07:20.414Z,0.81
2022-11-25T04:07:57.589Z,0.79
2022-11-25T04:08:29.436Z,0.86
2022-11-25T04:09:00.860Z,1.08
2022-11-25T04:09:32.267Z,0.93
2022-11-25T04:10:03.656Z,0.83
2022-11-25T04:10:35.063Z,0.93
2022-11-25T04:11:06.455Z,0.69
2022-11-25T04:11:37.838Z,1.03
2022-11-25T04:12:09.223Z,0.99
2022-11-25T04:12:40.623Z,0.97
2022-11-25T04:13:12.023Z,1.07
2022-11-25T04:13:43.428Z,1.10
2022-11-25T04:14:14.875Z,1.17
2022-11-25T04:14:46.277Z,1.12
2022-11-25T04:15:17.690Z,0.94
2022-11-25T04:15:49.077Z,0.76
2022-11-25T04:16:20.483Z,0.71
2022-11-25T04:16:51.905Z,0.85
2022-11-25T04:17:23.351Z,1.11
2022-11-25T04:17:54.744Z,0.78
2022-11-25T04:18:26.135Z,0.85
2022-11-25T04:18:57.537Z,1.18
2022-11-25T04:19:28.996Z,0.75
2022-11-25T04:20:00.402Z,0.89
2022-11-25T04:20:31.787Z,0.81
2022-11-25T04:21:03.184Z,0.99
2022-11-25T04:21:34.572Z,1.07
2022-11-25T04:22:05.958Z,1.00
2022-11-25T04:22:37.410Z,1.11
2022-11-25T04:23:08.803Z,0.48
2022-11-25T04:23:40.201Z,0.71
2022-11-25T04:24:11.589Z,1.04
2022-11-25T04:24:43.123Z,1.07
2022-11-25T04:25:14.507Z,0.95
2022-11-25T04:25:45.977Z,0.88
2022-11-25T04:26:17.371Z,0.98
2022-11-25T04:26:48.769Z,0.87
2022-11-25T04:27:20.595Z,0.90
2022-11-25T04:27:52.086Z,0.80
2022-11-25T04:28:23.475Z,0.85
2022-11-25T04:28:54.868Z,1.09
2022-11-25T04:29:26.278Z,0.70
2022-11-25T04:29:57.783Z,0.65
2022-11-25T04:30:29.262Z,0.95
2022-11-25T04:31:00.709Z,0.83
2022-11-25T04:31:32.148Z,0.90
2022-11-25T04:32:03.548Z,0.81
2022-11-25T04:32:34.946Z,0.82
2022-11-25T04:33:06.334Z,0.75
2022-11-25T04:33:37.721Z,0.89
2022-11-25T04:34:09.115Z,0.88
2022-11-25T04:34:40.518Z,1.01
2022-11-25T04:35:11.942Z,0.97
2022-11-25T04:35:43.360Z,0.83
2022-11-25T04:36:14.747Z,0.90
2022-11-25T04:36:46.159Z,0.82
2022-11-25T04:37:17.559Z,0.84
2022-11-25T04:37:48.987Z,0.84
2022-11-25T04:38:20.381Z,0.78
2022-11-25T04:38:51.794Z,0.76
2022-11-25T04:39:23.202Z,0.90
2022-11-25T04:39:54.604Z,0.82
2022-11-25T04:40:26.107Z,0.80
2022-11-25T04:40:57.505Z,0.76
2022-11-25T04:41:28.913Z,0.72
2022-11-25T04:42:00.298Z,0.51
2022-11-25T04:42:31.697Z,0.79
2022-11-25T04:43:09.070Z,0.76
2022-11-25T04:43:41.834Z,0.64
2022-11-25T04:44:13.259Z,0.73
2022-11-25T04:45:01.131Z,0.80
2022-11-25T04:45:51.903Z,0.63
2022-11-25T04:46:27.567Z,0.70
2022-11-25T04:46:59.069Z,0.67
2022-11-25T04:47:30.499Z,0.73
2022-11-25T04:48:01.907Z,0.80
2022-11-25T04:48:33.310Z,0.73
2022-11-25T04:49:04.716Z,0.78
2022-11-25T04:49:36.097Z,0.77
2022-11-25T04:50:07.482Z,0.70
2022-11-25T04:50:38.915Z,0.90
2022-11-25T04:51:10.331Z,0.94
2022-11-25T04:51:41.713Z,0.68
2022-11-25T04:52:13.106Z,0.72
2022-11-25T04:52:44.510Z,0.94
2022-11-25T04:53:15.913Z,0.84
2022-11-25T04:53:47.306Z,0.62
2022-11-25T04:54:18.692Z,0.60
2022-11-25T04:54:50.154Z,0.88
2022-11-25T04:55:21.550Z,0.69
2022-11-25T04:55:53.048Z,0.75
2022-11-25T04:56:24.434Z,0.96
2022-11-25T04:56:55.824Z,0.77
2022-11-25T04:57:27.223Z,0.76
2022-11-25T04:57:58.642Z,0.71
2022-11-25T04:58:30.047Z,0.87
2022-11-25T04:59:01.443Z,0.68
2022-11-25T04:59:32.833Z,0.73
2022-11-25T05:00:04.242Z,0.76
2022-11-25T05:00:35.655Z,0.70
2022-11-25T05:01:07.255Z,0.73
2022-11-25T05:01:38.766Z,0.66
2022-11-25T05:02:10.223Z,0.80
2022-11-25T05:02:41.763Z,0.69
2022-11-25T05:03:13.269Z,0.56
2022-11-25T05:03:49.615Z,1.08
2022-11-25T05:04:22.167Z,0.61
2022-11-25T05:04:53.578Z,0.47
2022-11-25T05:05:24.974Z,0.88
2022-11-25T05:05:56.361Z,0.60
2022-11-25T05:06:27.827Z,0.50
2022-11-25T05:06:59.232Z,0.50
2022-11-25T05:07:30.681Z,0.69
2022-11-25T05:08:02.133Z,0.77
2022-11-25T05:08:33.523Z,0.75
2022-11-25T05:09:04.915Z,0.55
2022-11-25T05:09:36.300Z,0.73
2022-11-25T05:10:07.697Z,0.85
2022-11-25T05:10:39.087Z,0.69
2022-11-25T05:11:10.495Z,0.75
2022-11-25T05:11:41.959Z,0.82
2022-11-25T05:12:13.350Z,0.91
2022-11-25T05:12:44.744Z,0.87
2022-11-25T05:13:16.136Z,0.84
2022-11-25T05:13:47.526Z,0.68
2022-11-25T05:14:18.930Z,0.60
2022-11-25T05:14:50.345Z,0.68
2022-11-25T05:15:21.737Z,0.67
2022-11-25T05:15:53.250Z,0.74
2022-11-25T05:16:24.731Z,0.78
2022-11-25T05:16:56.279Z,0.88
2022-11-25T05:17:27.694Z,0.51
2022-11-25T05:17:59.103Z,0.93
2022-11-25T05:18:30.489Z,0.68
2022-11-25T05:19:01.898Z,0.82
2022-11-25T05:19:33.304Z,0.68
2022-11-25T05:20:04.697Z,0.66
2022-11-25T05:20:36.086Z,0.50
2022-11-25T05:21:07.583Z,0.57
2022-11-25T05:21:39.001Z,0.76
2022-11-25T05:22:10.496Z,0.67
2022-11-25T05:22:41.906Z,0.78
2022-11-25T05:23:13.306Z,0.78
2022-11-25T05:23:44.725Z,0.51
2022-11-25T05:24:16.122Z,0.87
2022-11-25T05:24:47.515Z,0.91
2022-11-25T05:25:18.911Z,0.64
2022-11-25T05:25:50.303Z,0.70
2022-11-25T05:26:21.699Z,0.77
2022-11-25T05:26:53.087Z,0.90
2022-11-25T05:27:24.542Z,0.59
2022-11-25T05:27:55.943Z,0.50
2022-11-25T05:28:27.335Z,0.51
2022-11-25T05:28:58.719Z,0.71
2022-11-25T05:29:30.124Z,0.82
2022-11-25T05:30:01.516Z,0.90
2022-11-25T05:30:32.935Z,0.86
2022-11-25T05:31:04.413Z,0.56
2022-11-25T05:31:35.848Z,0.70
2022-11-25T05:32:07.247Z,0.71
2022-11-25T05:32:38.718Z,0.65
2022-11-25T05:33:10.115Z,0.56
2022-11-25T05:33:41.518Z,0.84
2022-11-25T05:34:12.969Z,0.60
2022-11-25T05:34:44.364Z,0.61
2022-11-25T05:35:15.761Z,0.45
2022-11-25T05:35:47.153Z,0.64
2022-11-25T05:36:18.574Z,0.82
2022-11-25T05:36:49.963Z,0.62
2022-11-25T05:37:24.501Z,0.83
2022-11-25T05:37:56.247Z,0.68
2022-11-25T05:38:27.666Z,1.06
2022-11-25T05:38:59.070Z,0.83
2022-11-25T05:39:30.458Z,0.50
2022-11-25T05:40:01.847Z,0.65
2022-11-25T05:40:33.250Z,0.68
2022-11-25T05:41:04.664Z,0.84
2022-11-25T05:41:36.078Z,0.74
2022-11-25T05:42:07.465Z,0.72
2022-11-25T05:42:38.870Z,1.04
2022-11-25T05:43:10.316Z,0.96
2022-11-25T05:43:41.732Z,0.69
2022-11-25T05:44:13.124Z,0.75
2022-11-25T05:44:44.511Z,0.66
2022-11-25T05:45:15.911Z,0.68
2022-11-25T05:45:47.371Z,0.91
2022-11-25T05:46:18.898Z,0.87
2022-11-25T05:46:50.354Z,0.82
2022-11-25T05:47:21.767Z,0.92
2022-11-25T05:47:53.149Z,0.77
2022-11-25T05:48:24.685Z,0.71
2022-11-25T05:48:56.068Z,0.61
2022-11-25T05:49:27.463Z,0.78
2022-11-25T05:49:58.851Z,0.78
2022-11-25T05:50:30.240Z,0.84
2022-11-25T05:51:01.650Z,0.92
2022-11-25T05:51:33.038Z,0.92
2022-11-25T05:52:04.427Z,0.71
2022-11-25T05:52:35.827Z,0.86
2022-11-25T05:53:07.215Z,0.80
2022-11-25T05:53:38.661Z,0.64
2022-11-25T05:54:10.071Z,0.95
2022-11-25T05:54:41.460Z,1.09
2022-11-25T05:55:12.868Z,1.04
2022-11-25T05:55:44.250Z,0.91
2022-11-25T05:56:15.638Z,0.62
2022-11-25T05:56:47.047Z,0.67
2022-11-25T05:57:18.482Z,0.69
2022-11-25T05:57:49.872Z,0.74
2022-11-25T05:58:21.261Z,0.97
2022-11-25T05:58:52.812Z,0.65
2022-11-25T05:59:24.203Z,0.84
2022-11-25T05:59:55.613Z,0.79
2022-11-25T06:00:27.076Z,0.86
2022-11-25T06:00:58.555Z,0.82
2022-11-25T06:01:29.956Z,0.99
2022-11-25T06:02:01.380Z,0.75
2022-11-25T06:02:32.860Z,0.77
2022-11-25T06:03:04.580Z,0.74
2022-11-25T06:03:36.274Z,0.82
2022-11-25T06:04:07.810Z,0.68
2022-11-25T06:04:39.375Z,0.49
2022-11-25T06:05:10.887Z,0.83
2022-11-25T06:05:42.267Z,0.78
2022-11-25T06:06:13.664Z,0.68
2022-11-25T06:06:45.047Z,0.73
2022-11-25T06:07:16.471Z,0.82
2022-11-25T06:07:47.997Z,0.72
2022-11-25T06:08:19.426Z,0.78
2022-11-25T06:08:50.817Z,0.81
2022-11-25T06:09:22.346Z,0.85
2022-11-25T06:09:55.067Z,0.81
2022-11-25T06:10:28.043Z,0.80
2022-11-25T06:10:59.436Z,0.92
2022-11-25T06:11:30.835Z,0.75
2022-11-25T06:12:02.245Z,0.76
2022-11-25T06:12:33.639Z,0.85
2022-11-25T06:13:05.042Z,0.63
2022-11-25T06:13:36.461Z,0.79
2022-11-25T06:14:07.849Z,0.79
2022-11-25T06:14:39.283Z,0.88
2022-11-25T06:15:10.674Z,0.92
2022-11-25T06:15:42.107Z,0.81
2022-11-25T06:16:13.569Z,0.75
2022-11-25T06:16:44.967Z,1.39
2022-11-25T06:17:16.354Z,1.35
2022-11-25T06:17:47.747Z,0.95
2022-11-25T06:18:19.158Z,1.08
2022-11-25T06:18:50.552Z,0.89
2022-11-25T06:19:21.949Z,0.95
2022-11-25T06:19:53.454Z,0.93
2022-11-25T06:20:24.843Z,0.87
2022-11-25T06:20:56.262Z,0.67
2022-11-25T06:21:27.653Z,0.78
2022-11-25T06:21:59.042Z,0.83
2022-11-25T06:22:30.393Z,0.96
2022-11-25T06:23:01.798Z,0.49
2022-11-25T06:23:33.182Z,0.87
2022-11-25T06:24:04.625Z,0.85
2022-11-25T06:24:36.393Z,0.89
2022-11-25T06:25:08.116Z,1.07
2022-11-25T06:25:39.501Z,0.81
2022-11-25T06:26:10.894Z,1.05
2022-11-25T06:26:42.283Z,0.83
2022-11-25T06:27:13.675Z,0.93
2022-11-25T06:28:11.228Z,0.81
2022-11-25T06:28:36.424Z,0.70
2022-11-25T06:29:07.838Z,0.89
2022-11-25T06:29:39.218Z,0.77
2022-11-25T06:30:10.647Z,0.78
2022-11-25T06:30:42.042Z,0.82
2022-11-25T06:31:13.521Z,0.70
2022-11-25T06:31:44.989Z,0.91
2022-11-25T06:32:16.378Z,0.79
2022-11-25T06:32:47.835Z,0.81
2022-11-25T06:33:19.224Z,0.98
2022-11-25T06:33:50.689Z,0.86
2022-11-25T06:34:22.280Z,0.72
2022-11-25T06:34:53.927Z,0.88
2022-11-25T06:35:25.473Z,0.93
2022-11-25T06:35:56.866Z,0.79
2022-11-25T06:36:28.279Z,0.73
2022-11-25T06:36:59.689Z,1.16
2022-11-25T06:37:31.077Z,0.70
2022-11-25T06:38:02.476Z,0.80
2022-11-25T06:38:33.827Z,0.79
2022-11-25T06:39:05.229Z,0.89
2022-11-25T06:39:36.614Z,0.64
2022-11-25T06:40:08.000Z,1.03
2022-11-25T06:40:39.559Z,0.99
2022-11-25T06:41:10.944Z,1.08
2022-11-25T06:41:42.413Z,0.91
2022-11-25T06:42:13.814Z,0.86
2022-11-25T06:42:45.207Z,1.00
2022-11-25T06:43:16.614Z,0.83
2022-11-25T06:43:48.003Z,0.95
2022-11-25T06:44:19.399Z,0.75
2022-11-25T06:44:50.794Z,1.01
2022-11-25T06:45:22.198Z,0.94
2022-11-25T06:45:53.743Z,1.05
2022-11-25T06:46:25.634Z,0.83
2022-11-25T06:46:57.206Z,0.91
2022-11-25T06:47:28.614Z,0.84
2022-11-25T06:48:06.202Z,0.73
2022-11-25T06:48:37.606Z,0.85
2022-11-25T06:49:08.994Z,0.88
2022-11-25T06:49:40.378Z,0.87
2022-11-25T06:50:11.854Z,1.14
2022-11-25T06:50:43.374Z,1.03
2022-11-25T06:51:15.536Z,0.94
2022-11-25T06:51:47.017Z,0.84
2022-11-25T06:52:18.579Z,1.05
2022-11-25T06:52:50.115Z,1.29
2022-11-25T06:53:24.213Z,1.28
2022-11-25T06:53:55.852Z,1.10
2022-11-25T06:54:27.335Z,0.98
2022-11-25T06:54:58.791Z,0.80
2022-11-25T06:55:30.194Z,1.47
2022-11-25T06:56:01.613Z,1.31
2022-11-25T06:56:33.326Z,0.87
2022-11-25T06:57:04.819Z,0.96
2022-11-25T06:57:36.240Z,1.27
2022-11-25T06:58:34.377Z,1.03
2022-11-25T06:59:01.066Z,0.78
2022-11-25T06:59:32.460Z,0.93
2022-11-25T07:00:03.854Z,0.86
2022-11-25T07:00:35.507Z,1.04